Hlavní strana
METAR-TAF:

METAR-TAF

Letiště :

Letiště Drážďany

Drážďany, Německo

zeměpisná šířka: 51-08N, zeměpisná délka: 013-45E, výška: 230 m

Aktuální stav počasí

Zpráva byla vytvořena před 33 minutami, v 03:50 UTC
Jihovýchodní vítr 3 kt, proměnlivý mezi východním a jižním
Teplota 6°C
Vlhkost vzduchu 61%
Tlak 1025 hPa
Viditelnost 10 km a více
Žádná oblačnost pod 1500 m, nevyskytují se cumulonimby.

METAR: EDDC 210350Z 13003KT 080V180 CAVOK 06/M01 Q1025 NOSIG

Čas: 06:23 (04:23 UTC)

Předpověď počasí

Zpráva byla vytvořena před 5 hodinami a 23 minutami, v 23:00 UTC
Předpověď platná od 21 v 00 UTC do 21 v 24 UTC
vítr z různých směrů 3 kt
Viditelnost 10 km a více
Žádná oblačnost pod 1500 m, nevyskytují se cumulonimby.
Změna
od 21 v 07 UTC do 21 v 10 UTC
Východní vítr 5 kt

TAF: EDDC 202300Z 2100/2124 VRB03KT CAVOK BECMG 2107/2110 09005KT

Stav a předpovědi počasí z více než 4 000 letišť (zprávy METAR a TAF).

Červené a žluté tečky na mapě představují dostupné meteorologické stanice.

Když kurzor umístíte na tečku, zobrazí se název stanice.

Pak kliknutím zobrazíte stav a předpověď počasí.

Chcete-li změnit mapu, kliknutím na zelené tlačítko se znaménkem +mapu přiblížíte, kliknutím na zelené tlačítko se znaménkem – mapu oddálíte a kliknutím na zelené šipky přejdete na sousední mapy.


METAR-TAF: